Time;durP1;ratioP1;P1;durP2;ratioP2;P2;SDS_P1;SDS_P2;PMS_P1;PMS_P2;Temp;Humidity;BMP_temperature;BMP_pressure;BME280_temperature;BME280_humidity;BME280_pressure;Samples;Min_cycle;Max_cycle;Signal;HPM_P1;HPM_P2
2024/03/16 00:02:25;;;;;;;42.50;23.60;;;;;;;4.76;100.00;101218.02;106409;1254;61240;-80
2024/03/16 00:05:05;;;;;;;37.70;22.10;;;;;;;4.68;100.00;101213.55;107143;1260;74721;-80
2024/03/16 00:07:44;;;;;;;41.00;21.80;;;;;;;4.68;100.00;101212.55;106357;1253;68883;-80
2024/03/16 00:10:24;;;;;;;48.40;23.90;;;;;;;4.67;100.00;101211.52;106619;1253;73545;-80
2024/03/16 00:13:06;;;;;;;52.70;24.10;;;;;;;4.64;100.00;101210.53;106423;1254;61325;-80
2024/03/16 00:15:46;;;;;;;49.50;24.90;;;;;;;4.74;100.00;101207.33;106442;1253;61247;-80
2024/03/16 00:18:26;;;;;;;57.00;24.70;;;;;;;4.81;100.00;101208.90;106273;1254;74761;-80
2024/03/16 00:21:06;;;;;;;50.70;25.60;;;;;;;4.79;100.00;101210.41;106475;1254;68698;-80
2024/03/16 00:23:45;;;;;;;56.20;25.90;;;;;;;4.73;100.00;101215.75;106388;1253;71440;-80
2024/03/16 00:26:26;;;;;;;56.70;25.40;;;;;;;4.77;100.00;101212.42;106647;1254;61339;-85
2024/03/16 00:29:07;;;;;;;52.20;26.10;;;;;;;4.84;100.00;101207.23;106358;1254;61368;-85
2024/03/16 00:31:48;;;;;;;54.50;26.50;;;;;;;5.03;100.00;101204.88;106445;1254;74740;-86
2024/03/16 00:34:28;;;;;;;51.00;25.20;;;;;;;5.07;100.00;101207.05;107132;1253;68320;-85
2024/03/16 00:37:08;;;;;;;47.30;24.80;;;;;;;5.11;100.00;101208.27;106326;1254;72654;-80
2024/03/16 00:39:49;;;;;;;44.50;24.00;;;;;;;5.14;100.00;101204.68;106164;1254;61339;-80
2024/03/16 00:42:30;;;;;;;41.40;23.30;;;;;;;5.11;100.00;101202.67;106486;1253;61397;-80
2024/03/16 00:45:10;;;;;;;44.90;24.70;;;;;;;5.09;100.00;101199.14;106451;1253;73226;-85
2024/03/16 00:47:50;;;;;;;46.50;23.40;;;;;;;4.91;100.00;101196.33;106391;1254;69347;-84
2024/03/16 00:50:31;;;;;;;57.00;25.90;;;;;;;4.66;100.00;101198.20;107039;1254;71399;-80
2024/03/16 00:53:11;;;;;;;59.70;25.50;;;;;;;4.79;100.00;101195.25;106343;1253;61286;-80
2024/03/16 00:55:51;;;;;;;52.30;24.30;;;;;;;4.65;100.00;101194.20;106352;1254;61304;-85
2024/03/16 00:58:30;;;;;;;58.60;25.30;;;;;;;4.70;100.00;101189.71;106373;1254;73401;-80
2024/03/16 01:01:10;;;;;;;63.20;25.90;;;;;;;4.88;100.00;101189.14;106409;1257;68504;-85
2024/03/16 01:03:50;;;;;;;59.90;27.60;;;;;;;4.75;100.00;101185.70;106364;1252;72654;-86
2024/03/16 01:06:30;;;;;;;59.80;26.70;;;;;;;4.73;100.00;101189.17;106510;1254;61350;-86
2024/03/16 01:09:10;;;;;;;52.30;25.10;;;;;;;4.67;100.00;101191.53;106439;1253;61240;-86
2024/03/16 01:11:50;;;;;;;53.40;24.40;;;;;;;4.73;100.00;101191.27;106383;1253;74686;-80
2024/03/16 01:14:29;;;;;;;57.10;23.90;;;;;;;4.71;100.00;101195.83;106547;1254;68414;-85
2024/03/16 01:17:09;;;;;;;58.00;25.80;;;;;;;4.73;100.00;101198.75;106329;1257;72750;-86
2024/03/16 01:19:49;;;;;;;51.50;26.40;;;;;;;4.92;100.00;101193.05;106442;1254;61378;-85
2024/03/16 01:22:28;;;;;;;63.00;26.70;;;;;;;4.88;100.00;101195.91;107440;1253;61256;-86
2024/03/16 01:25:08;;;;;;;60.20;24.50;;;;;;;4.78;100.00;101195.76;106385;1257;74676;-80
2024/03/16 01:27:48;;;;;;;50.40;25.80;;;;;;;4.88;100.00;101195.36;106269;1254;68580;-80
2024/03/16 01:30:28;;;;;;;51.30;24.60;;;;;;;5.10;100.00;101197.30;106299;1254;72609;-85
2024/03/16 01:33:07;;;;;;;58.40;25.60;;;;;;;4.91;100.00;101195.80;106260;1253;61736;-86
2024/03/16 01:35:48;;;;;;;56.00;24.60;;;;;;;5.02;100.00;101197.52;106259;1254;61368;-86
2024/03/16 01:38:29;;;;;;;53.00;24.20;;;;;;;5.05;100.00;101197.95;106209;1254;73774;-85
2024/03/16 01:41:08;;;;;;;53.20;25.70;;;;;;;4.81;100.00;101199.98;106474;1254;67122;-85
2024/03/16 01:43:52;;;;;;;53.30;26.20;;;;;;;4.85;100.00;101193.60;106338;1258;71297;-80
2024/03/16 01:46:32;;;;;;;53.40;25.50;;;;;;;4.69;100.00;101194.96;106310;1254;61345;-80
2024/03/16 01:49:12;;;;;;;55.60;26.80;;;;;;;4.84;100.00;101195.39;106408;1253;61326;-80
2024/03/16 01:51:51;;;;;;;72.40;29.00;;;;;;;4.81;100.00;101194.94;106466;1254;73562;-80
2024/03/16 01:54:31;;;;;;;62.00;28.10;;;;;;;4.77;100.00;101195.64;106698;1254;68484;-80
2024/03/16 01:57:11;;;;;;;55.60;26.50;;;;;;;4.75;100.00;101193.28;106574;1254;72439;-80
2024/03/16 01:59:51;;;;;;;58.80;25.30;;;;;;;4.77;100.00;101194.42;106308;1253;61353;-79
2024/03/16 02:02:41;;;;;;;51.10;25.40;;;;;;;4.74;100.00;101192.70;106326;1253;61103;-79
2024/03/16 02:05:20;;;;;;;53.20;25.90;;;;;;;4.67;100.00;101195.27;106355;1254;74641;-80
2024/03/16 02:08:01;;;;;;;45.70;23.90;;;;;;;4.63;100.00;101197.59;106184;1253;204407;-80
2024/03/16 02:10:41;;;;;;;58.50;25.30;;;;;;;4.63;100.00;101201.73;106380;1253;72668;-80
2024/03/16 02:13:21;;;;;;;57.60;27.30;;;;;;;4.64;100.00;101205.95;106593;1254;61441;-85
2024/03/16 02:16:01;;;;;;;62.30;27.60;;;;;;;4.67;100.00;101205.92;106481;1254;61271;-85
2024/03/16 02:18:41;;;;;;;54.40;25.30;;;;;;;4.71;100.00;101204.44;106313;1257;74649;-86
2024/03/16 02:21:21;;;;;;;65.30;27.60;;;;;;;4.73;100.00;101207.71;106354;1254;67392;-85
2024/03/16 02:24:01;;;;;;;54.40;25.60;;;;;;;4.79;100.00;101205.00;106439;1253;71472;-80
2024/03/16 02:26:41;;;;;;;49.70;25.90;;;;;;;4.84;100.00;101205.31;106767;1254;61220;-80
2024/03/16 02:29:22;;;;;;;54.70;25.00;;;;;;;4.79;100.00;101203.21;106362;1257;61244;-80
2024/03/16 02:32:02;;;;;;;51.90;25.80;;;;;;;4.68;100.00;101204.93;106396;1253;74729;-80
2024/03/16 02:34:43;;;;;;;52.00;25.80;;;;;;;4.69;100.00;101213.08;106503;1254;68510;-80
2024/03/16 02:37:24;;;;;;;52.20;27.40;;;;;;;4.69;100.00;101213.58;106198;1253;72728;-80
2024/03/16 02:40:04;;;;;;;55.00;27.20;;;;;;;4.69;100.00;101222.45;106275;1254;61377;-80
2024/03/16 02:42:47;;;;;;;44.80;25.90;;;;;;;4.69;100.00;101221.33;106556;1253;61226;-80
2024/03/16 02:45:26;;;;;;;;;;;;;;;4.75;100.00;101218.52;106370;1252;73399;-85
2024/03/16 02:48:06;;;;;;;49.80;26.20;;;;;;;4.81;100.00;101220.17;106327;1254;67414;-86
2024/03/16 02:50:46;;;;;;;45.90;23.10;;;;;;;4.83;100.00;101217.95;106445;1254;72651;-85
2024/03/16 02:53:25;;;;;;;53.30;26.10;;;;;;;4.82;100.00;101217.52;106477;1253;61394;-85
2024/03/16 02:56:05;;;;;;;52.50;24.80;;;;;;;4.85;100.00;101215.86;106311;1253;61160;-85
2024/03/16 02:58:45;;;;;;;54.30;25.60;;;;;;;4.82;100.00;101215.71;106813;1257;74646;-85
2024/03/16 03:01:25;;;;;;;53.50;23.60;;;;;;;4.80;100.00;101209.95;106351;1253;68467;-86
2024/03/16 03:04:05;;;;;;;53.90;27.20;;;;;;;4.73;100.00;101208.13;106528;1254;73030;-85
2024/03/16 03:06:45;;;;;;;49.30;26.10;;;;;;;4.67;100.00;101208.44;106305;1254;61429;-84
2024/03/16 03:09:25;;;;;;;47.00;24.60;;;;;;;4.67;100.00;101210.77;106310;1254;61272;-85
2024/03/16 03:12:06;;;;;;;51.40;25.10;;;;;;;4.66;100.00;101220.11;106353;1257;74551;-79
2024/03/16 03:14:45;;;;;;;45.40;25.60;;;;;;;4.66;100.00;101218.31;106398;1254;68963;-79
2024/03/16 03:17:25;;;;;;;44.60;24.60;;;;;;;4.70;100.00;101213.49;106362;1254;71474;-85
2024/03/16 03:20:08;;;;;;;48.50;24.70;;;;;;;4.71;100.00;101213.15;106397;1254;61730;-79
2024/03/16 03:22:47;;;;;;;;;;;;;;;4.75;100.00;101216.23;106395;1254;61234;-79
2024/03/16 03:25:27;;;;;;;48.00;23.10;;;;;;;4.80;100.00;101222.23;107064;1254;74594;-80
2024/03/16 03:28:07;;;;;;;50.70;26.80;;;;;;;4.78;100.00;101216.13;106136;1259;67270;-79
2024/03/16 03:30:52;;;;;;;51.40;25.70;;;;;;;4.82;100.00;101219.13;106462;1254;72732;-79
2024/03/16 03:33:32;;;;;;;55.20;25.80;;;;;;;4.78;100.00;101221.16;106410;1259;61454;-85
2024/03/16 03:36:12;;;;;;;49.30;25.40;;;;;;;4.73;100.00;101223.71;106452;1257;61195;-85
2024/03/16 03:38:52;;;;;;;48.20;26.60;;;;;;;4.80;100.00;101225.11;106499;1253;74447;-85
2024/03/16 03:41:32;;;;;;;41.90;23.90;;;;;;;4.68;100.00;101228.66;107093;1253;68386;-85
2024/03/16 03:44:20;;;;;;;54.90;26.20;;;;;;;4.73;100.00;101227.84;106311;1257;71486;-84
2024/03/16 11:46:13;;;;;;;75.30;31.80;;;;;;;9.93;100.00;101231.92;106207;1253;77031;-76
2024/03/16 11:48:47;;;;;;;70.00;31.40;;;;;;;9.92;100.00;101234.65;106074;1254;69109;-81
2024/03/16 11:51:15;;;;;;;71.80;31.80;;;;;;;9.90;100.00;101230.10;106729;1253;74412;-81
2024/03/16 11:53:49;;;;;;;68.90;31.10;;;;;;;9.80;100.00;101233.09;108443;1252;62367;-78
2024/03/16 11:56:23;;;;;;;69.70;31.00;;;;;;;9.80;100.00;101234.11;107305;1254;61250;-83
2024/03/16 11:58:50;;;;;;;69.20;31.60;;;;;;;9.80;100.00;101231.06;106163;1256;74490;-77
2024/03/16 12:01:21;;;;;;;73.50;32.20;;;;;;;9.85;100.00;101228.55;105938;1257;71015;-82
2024/03/16 12:03:55;;;;;;;69.30;31.40;;;;;;;9.93;100.00;101229.30;106076;1254;73149;-83
2024/03/16 12:06:23;;;;;;;75.40;32.60;;;;;;;9.86;100.00;101228.14;106127;1256;61253;-83
2024/03/16 12:08:51;;;;;;;75.40;32.90;;;;;;;9.87;100.00;101222.95;105814;1254;61170;-82
2024/03/16 12:11:24;;;;;;;80.80;33.40;;;;;;;9.92;100.00;101229.61;106010;1254;75783;-83
2024/03/16 12:14:08;;;;;;;78.50;35.10;;;;;;;9.87;100.00;101229.79;106203;1256;69880;-83
2024/03/16 12:16:42;;;;;;;77.00;35.20;;;;;;;9.88;100.00;101228.58;105885;1257;72718;-83
2024/03/16 12:19:11;;;;;;;80.40;34.80;;;;;;;9.89;100.00;101227.66;106319;1252;62062;-77
2024/03/16 12:21:45;;;;;;;82.60;34.60;;;;;;;9.89;100.00;101227.66;106381;1258;61144;-77
2024/03/16 12:24:19;;;;;;;85.00;34.80;;;;;;;9.91;100.00;101232.33;106098;1254;75542;-77
2024/03/16 12:26:53;;;;;;;80.40;33.60;;;;;;;9.83;100.00;101233.89;106111;1257;67237;-77
2024/03/16 12:29:21;;;;;;;81.10;34.50;;;;;;;9.76;100.00;101231.95;106183;1257;75022;-82
2024/03/16 12:31:58;;;;;;;73.60;35.10;;;;;;;9.66;100.00;101229.70;106091;1254;62202;-83
2024/03/16 12:34:31;;;;;;;76.30;32.90;;;;;;;9.55;100.00;101231.02;105870;1262;61280;-77
2024/03/16 12:37:07;;;;;;;67.20;33.50;;;;;;;9.54;100.00;101230.91;106620;1257;74652;-82
2024/03/16 12:39:36;;;;;;;79.50;35.60;;;;;;;9.52;100.00;101224.71;106052;1254;70701;-83
2024/03/16 12:42:10;;;;;;;80.50;37.20;;;;;;;9.42;100.00;101228.52;106176;1254;71449;-83
2024/03/16 12:44:44;;;;;;;80.10;35.30;;;;;;;9.23;100.00;101229.14;106152;1256;61219;-82
2024/03/16 12:47:15;;;;;;;80.60;34.60;;;;;;;9.09;100.00;101230.89;106141;1258;61309;-83
2024/03/16 12:49:49;;;;;;;74.70;33.90;;;;;;;9.00;100.00;101230.70;106000;1255;76949;-83
2024/03/16 12:52:25;;;;;;;83.60;36.70;;;;;;;8.93;100.00;101235.79;105977;1257;70387;-77
2024/03/16 12:55:00;;;;;;;82.00;35.70;;;;;;;8.83;100.00;101235.46;106171;1254;74930;-78
2024/03/16 12:57:31;;;;;;;82.80;35.10;;;;;;;8.69;100.00;101231.58;106072;1255;62439;-83
2024/03/16 13:00:06;;;;;;;85.40;35.00;;;;;;;8.48;100.00;101230.80;105936;1257;61205;-83
2024/03/16 13:02:39;;;;;;;86.10;37.20;;;;;;;8.32;100.00;101226.70;105956;1254;77066;-78
2024/03/16 13:05:13;;;;;;;95.90;39.30;;;;;;;8.28;100.00;101221.92;106251;1257;70751;-78
2024/03/16 13:07:41;;;;;;;85.40;37.10;;;;;;;8.30;100.00;101227.79;106110;1258;73514;-83
2024/03/16 13:10:15;;;;;;;82.80;36.70;;;;;;;8.39;100.00;101221.39;106166;1256;63376;-77
2024/03/16 13:12:48;;;;;;;92.40;38.40;;;;;;;8.47;100.00;101216.02;106196;1255;61370;-83
2024/03/16 13:15:22;;;;;;;71.10;36.70;;;;;;;8.54;100.00;101221.48;106082;1253;74566;-83
2024/03/16 13:17:51;;;;;;;76.10;34.20;;;;;;;8.59;100.00;101219.49;106334;1257;70361;-77
2024/03/16 13:20:25;;;;;;;67.00;34.10;;;;;;;8.65;100.00;101221.78;106392;1257;75172;-77
2024/03/16 13:22:59;;;;;;;67.50;31.30;;;;;;;8.65;100.00;101225.03;107753;1253;61205;-80
2024/03/16 13:25:41;;;;;;;;;;;;;;;8.60;100.00;101223.99;107632;1257;61241;-83
2024/03/16 13:28:09;;;;;;;66.60;30.60;;;;;;;8.67;100.00;101217.55;106415;1255;75737;-83
2024/03/16 13:30:43;;;;;;;68.10;32.70;;;;;;;8.70;100.00;101216.18;106447;1256;70767;-77
2024/03/16 13:33:17;;;;;;;79.20;36.80;;;;;;;8.72;100.00;101216.98;106200;1264;73802;-78
2024/03/16 13:35:53;;;;;;;65.60;35.90;;;;;;;8.82;100.00;101219.42;106585;1257;61186;-77
2024/03/16 13:38:22;;;;;;;67.90;36.20;;;;;;;8.95;100.00;101216.08;106332;1254;62341;-78
2024/03/16 13:40:56;;;;;;;69.80;36.70;;;;;;;8.92;100.00;101217.41;106531;1254;76050;-78
2024/03/16 13:43:30;;;;;;;65.10;33.60;;;;;;;8.93;100.00;101217.36;106397;1257;69272;-83
2024/03/16 13:46:03;;;;;;;66.80;34.10;;;;;;;8.82;100.00;101216.21;106517;1254;73827;-78
2024/03/16 13:48:31;;;;;;;63.00;34.20;;;;;;;8.81;100.00;101215.42;106515;1259;61362;-84
2024/03/16 13:51:06;;;;;;;64.30;34.40;;;;;;;8.80;100.00;101211.77;106199;1252;61441;-78
2024/03/16 13:53:53;;;;;;;69.10;34.60;;;;;;;8.86;100.00;101213.09;106216;1257;76774;-78
2024/03/16 13:56:21;;;;;;;64.10;34.70;;;;;;;8.87;100.00;101209.69;106560;1256;68371;-78
2024/03/16 13:58:51;;;;;;;63.50;33.30;;;;;;;8.87;100.00;101208.27;107166;1254;74813;-78
2024/03/16 14:01:25;;;;;;;67.50;34.10;;;;;;;8.87;100.00;101205.98;107187;1257;61365;-77
2024/03/16 14:03:59;;;;;;;70.10;35.40;;;;;;;8.90;100.00;101204.02;107664;1252;61953;-83
2024/03/16 14:06:27;;;;;;;68.70;34.40;;;;;;;8.92;100.00;101202.91;105984;1255;236616;-83
2024/03/16 14:09:06;;;;;;;74.60;36.10;;;;;;;8.94;100.00;101199.55;106072;1256;70773;-78
2024/03/16 14:11:40;;;;;;;70.50;33.90;;;;;;;8.95;100.00;101195.52;106324;1255;74477;-83
2024/03/16 14:14:15;;;;;;;68.30;34.70;;;;;;;8.91;100.00;101198.69;106059;1254;61598;-82
2024/03/16 14:16:43;;;;;;;64.70;34.30;;;;;;;8.92;100.00;101199.52;106158;1254;62281;-77
2024/03/16 14:19:17;;;;;;;69.30;34.00;;;;;;;8.91;100.00;101203.27;106131;1257;76819;-77
2024/03/16 14:21:51;;;;;;;66.40;35.60;;;;;;;8.91;100.00;101205.02;106067;1256;70093;-77
2024/03/16 14:24:25;;;;;;;63.60;32.00;;;;;;;8.88;100.00;101204.91;106002;1257;73783;-83
2024/03/16 14:26:53;;;;;;;70.20;32.60;;;;;;;8.88;100.00;101204.16;105932;1254;62658;-83
2024/03/16 14:29:26;;;;;;;69.00;34.60;;;;;;;8.88;100.00;101201.25;105803;1257;62371;-83
2024/03/16 14:32:00;;;;;;;75.10;35.40;;;;;;;8.86;100.00;101197.95;106171;1254;76139;-83
2024/03/16 14:34:34;;;;;;;74.80;36.70;;;;;;;8.75;100.00;101199.48;106151;1257;70924;-77
2024/03/16 14:37:03;;;;;;;68.20;35.00;;;;;;;8.63;100.00;101194.77;106001;1257;73865;-83
2024/03/16 14:39:37;;;;;;;70.20;35.10;;;;;;;8.66;100.00;101195.20;106200;1256;61108;-82
2024/03/16 14:42:12;;;;;;;71.80;37.20;;;;;;;8.59;100.00;101192.09;106558;1256;61361;-78
2024/03/16 14:44:40;;;;;;;76.10;35.20;;;;;;;8.55;100.00;101191.92;106066;1254;76288;-77
2024/03/16 14:47:14;;;;;;;65.40;36.80;;;;;;;8.49;100.00;101192.14;106074;1254;69285;-81
2024/03/16 14:49:48;;;;;;;69.50;34.00;;;;;;;8.44;100.00;101194.52;105926;1255;73186;-82
2024/03/16 14:52:22;;;;;;;65.00;33.70;;;;;;;8.35;100.00;101193.91;106471;1254;61364;-77
2024/03/16 14:54:49;;;;;;;66.50;34.00;;;;;;;8.27;100.00;101193.38;106357;1253;61954;-78
2024/03/16 14:57:23;;;;;;;61.00;32.30;;;;;;;8.20;100.00;101191.02;106406;1257;76122;-83
2024/03/16 14:59:57;;;;;;;61.10;33.40;;;;;;;8.17;100.00;101193.38;106433;1256;70513;-83
2024/03/16 15:02:31;;;;;;;61.80;31.80;;;;;;;8.15;100.00;101190.44;106235;1254;73813;-77
2024/03/16 15:05:02;;;;;;;60.70;30.90;;;;;;;8.13;100.00;101192.48;106314;1254;61295;-82
2024/03/16 15:07:36;;;;;;;60.70;32.30;;;;;;;8.12;100.00;101195.95;105871;1252;62250;-83
2024/03/16 15:10:12;;;;;;;60.80;32.10;;;;;;;8.07;100.00;101195.70;106086;1254;76802;-77
2024/03/16 15:12:46;;;;;;;63.30;33.10;;;;;;;8.04;100.00;101199.49;106005;1256;70462;-77
2024/03/16 15:15:20;;;;;;;64.60;32.80;;;;;;;7.99;100.00;101196.80;105838;1253;73459;-77
2024/03/16 15:17:54;;;;;;;61.10;31.00;;;;;;;8.00;100.00;101194.93;105844;1257;63145;-82
2024/03/16 15:20:28;;;;;;;58.00;30.90;;;;;;;7.99;100.00;101197.30;105875;1256;61212;-83
2024/03/16 15:23:02;;;;;;;55.80;31.80;;;;;;;8.00;100.00;101196.82;106465;1254;76994;-82
2024/03/16 15:26:29;;;;;;;59.30;31.70;;;;;;;7.97;100.00;101196.83;106356;1254;70688;-76
2024/03/16 15:28:34;;;;;;;60.30;33.00;;;;;;;7.94;100.00;101193.38;105986;1255;73892;-82
2024/03/16 15:31:09;;;;;;;60.50;30.30;;;;;;;7.92;100.00;101196.28;105842;1257;63240;-77
2024/03/16 15:33:43;;;;;;;63.30;31.40;;;;;;;7.86;100.00;101194.20;106182;1256;61163;-81
2024/03/16 15:36:17;;;;;;;59.60;31.00;;;;;;;7.82;100.00;101195.77;105914;1252;77725;-77
2024/03/16 15:38:51;;;;;;;59.50;31.00;;;;;;;7.80;100.00;101194.20;105954;1260;69615;-82
2024/03/16 15:41:25;;;;;;;58.90;32.20;;;;;;;7.76;100.00;101196.96;106131;1256;73907;-77
2024/03/16 15:43:59;;;;;;;63.20;31.90;;;;;;;7.72;100.00;101197.16;106023;1257;64020;-82
2024/03/16 23:49:03;;;;;;;58.90;32.10;;;;;;;6.10;100.00;101134.30;106614;1254;72435;-84
2024/03/16 23:51:43;;;;;;;52.30;29.30;;;;;;;6.13;100.00;101133.58;106400;1253;61340;-83
2024/03/16 23:54:24;;;;;;;58.50;32.50;;;;;;;6.17;100.00;101131.88;106231;1253;61291;-84
2024/03/16 23:57:03;;;;;;;55.80;31.60;;;;;;;6.19;100.00;101132.25;106445;1254;74720;-83
2024/03/16 23:59:43;;;;;;;60.90;33.30;;;;;;;6.20;100.00;101130.42;106835;1256;67589;-84
